createdAt,value
2023-04-10T00:00:53.229Z,8.20
2023-04-10T00:03:22.164Z,8.20
2023-04-10T00:05:54.648Z,8.10
2023-04-10T00:08:23.845Z,8.10
2023-04-10T00:10:53.213Z,8.10
2023-04-10T00:13:21.675Z,8.10
2023-04-10T00:15:50.764Z,8.10
2023-04-10T00:18:19.010Z,8.00
2023-04-10T00:20:47.197Z,8.00
2023-04-10T00:23:16.774Z,7.90
2023-04-10T00:25:45.113Z,7.90
2023-04-10T00:28:14.599Z,7.90
2023-04-10T00:30:42.763Z,7.90
2023-04-10T00:33:11.106Z,7.90
2023-04-10T00:35:39.697Z,7.80
2023-04-10T00:38:07.984Z,7.80
2023-04-10T00:40:37.491Z,7.80
2023-04-10T00:43:05.821Z,7.90
2023-04-10T00:45:34.095Z,7.80
2023-04-10T00:48:02.456Z,7.80
2023-04-10T00:50:31.080Z,7.80
2023-04-10T00:53:00.320Z,7.80
2023-04-10T00:55:28.516Z,7.70
2023-04-10T00:57:58.634Z,7.70
2023-04-10T01:00:26.892Z,7.70
2023-04-10T01:02:56.041Z,7.70
2023-04-10T01:05:25.517Z,7.70
2023-04-10T01:08:03.745Z,7.60
2023-04-10T01:10:39.404Z,7.60
2023-04-10T01:13:15.911Z,7.60
2023-04-10T01:15:48.963Z,7.50
2023-04-10T01:18:23.969Z,7.60
2023-04-10T01:20:52.231Z,7.50
2023-04-10T01:23:46.529Z,7.40
2023-04-10T01:26:18.236Z,7.40
2023-04-10T01:29:01.499Z,7.30
2023-04-10T01:31:38.495Z,7.30
2023-04-10T01:34:10.456Z,7.30
2023-04-10T01:36:46.582Z,7.30
2023-04-10T01:39:15.475Z,7.30
2023-04-10T01:41:45.999Z,7.20
2023-04-10T01:44:17.796Z,7.10
2023-04-10T01:46:47.797Z,7.10
2023-04-10T01:49:17.691Z,7.10
2023-04-10T01:51:47.647Z,7.10
2023-04-10T01:54:16.495Z,7.10
2023-04-10T01:56:45.507Z,7.10
2023-04-10T01:59:20.439Z,7.10
2023-04-10T02:01:48.844Z,7.20
2023-04-10T02:04:18.445Z,7.20
2023-04-10T02:06:52.554Z,7.30
2023-04-10T02:09:27.318Z,7.20
2023-04-10T02:11:59.971Z,7.20
2023-04-10T02:14:33.678Z,7.30
2023-04-10T02:17:03.780Z,7.40
2023-04-10T02:19:34.001Z,7.30
2023-04-10T02:22:02.822Z,7.30
2023-04-10T02:24:31.358Z,7.40
2023-04-10T02:26:59.659Z,7.40
2023-04-10T02:29:28.496Z,7.40
2023-04-10T02:31:58.099Z,7.50
2023-04-10T02:34:26.321Z,7.50
2023-04-10T02:36:54.789Z,7.40
2023-04-10T02:39:23.054Z,7.50
2023-04-10T02:41:53.372Z,7.50
2023-04-10T02:44:21.994Z,7.50
2023-04-10T02:46:50.326Z,7.50
2023-04-10T02:49:20.829Z,7.50
2023-04-10T02:51:49.040Z,7.50
2023-04-10T02:54:17.262Z,7.50
2023-04-10T02:56:45.699Z,7.50
2023-04-10T02:59:14.071Z,7.50
2023-04-10T03:01:42.987Z,7.60
2023-04-10T03:04:11.434Z,7.70
2023-04-10T03:06:43.459Z,7.60
2023-04-10T03:09:11.705Z,7.60
2023-04-10T03:11:39.888Z,7.60
2023-04-10T03:14:09.755Z,7.60
2023-04-10T03:16:38.119Z,7.60
2023-04-10T03:19:06.438Z,7.60
2023-04-10T03:21:34.695Z,7.70
2023-04-10T03:24:04.286Z,7.70
2023-04-10T03:26:33.310Z,7.70
2023-04-10T03:29:02.023Z,7.70
2023-04-10T03:31:31.002Z,7.70
2023-04-10T03:34:02.046Z,7.60
2023-04-10T03:36:30.698Z,7.60
2023-04-10T03:38:58.915Z,7.50
2023-04-10T03:41:28.544Z,7.50
2023-04-10T03:43:57.364Z,7.40
2023-04-10T03:46:26.351Z,7.40
2023-04-10T03:48:55.022Z,7.30
2023-04-10T03:51:24.591Z,7.30
2023-04-10T03:53:53.142Z,7.20
2023-04-10T03:56:22.591Z,7.20
2023-04-10T03:58:52.358Z,7.20
2023-04-10T04:01:22.057Z,7.30
2023-04-10T04:04:08.121Z,7.10
2023-04-10T04:07:02.498Z,7.10
2023-04-10T04:09:46.376Z,7.10
2023-04-10T04:12:33.387Z,7.00
2023-04-10T04:15:06.944Z,7.00
2023-04-10T04:18:07.361Z,7.10
2023-04-10T04:20:44.697Z,7.10
2023-04-10T04:23:35.436Z,7.10
2023-04-10T04:26:11.086Z,7.00
2023-04-10T04:29:04.853Z,7.10
2023-04-10T04:32:00.365Z,7.10
2023-04-10T04:34:56.644Z,7.10
2023-04-10T04:37:37.100Z,7.00
2023-04-10T04:40:40.206Z,7.00
2023-04-10T04:43:23.833Z,7.10
2023-04-10T04:46:00.030Z,7.10
2023-04-10T04:48:48.414Z,7.10
2023-04-10T04:51:45.226Z,7.10
2023-04-10T04:54:27.508Z,7.10
2023-04-10T04:57:14.039Z,7.20
2023-04-10T05:00:06.330Z,7.30
2023-04-10T05:03:00.559Z,7.30
2023-04-10T05:05:32.858Z,7.30
2023-04-10T05:08:19.015Z,7.30
2023-04-10T05:11:06.216Z,7.30
2023-04-10T05:13:37.254Z,7.40
2023-04-10T05:16:23.826Z,7.40
2023-04-10T05:19:12.353Z,7.50
2023-04-10T05:21:54.055Z,7.60
2023-04-10T05:24:33.659Z,7.70
2023-04-10T05:27:16.413Z,7.70
2023-04-10T05:30:09.753Z,7.70
2023-04-10T05:33:04.078Z,7.70
2023-04-10T05:36:06.012Z,7.80
2023-04-10T05:38:43.450Z,7.90
2023-04-10T05:41:29.329Z,7.90
2023-04-10T05:44:16.295Z,8.10
2023-04-10T05:47:04.969Z,8.10
2023-04-10T05:49:52.476Z,8.20
2023-04-10T05:52:34.094Z,8.30
2023-04-10T05:55:22.055Z,8.30
2023-04-10T05:58:08.769Z,8.50
2023-04-10T06:00:59.869Z,8.60
2023-04-10T06:03:57.539Z,8.80
2023-04-10T06:06:27.071Z,8.90
2023-04-10T06:08:55.533Z,9.10
2023-04-10T06:11:25.218Z,9.30
2023-04-10T06:13:56.682Z,9.40
2023-04-10T06:16:31.603Z,9.60
2023-04-10T06:19:00.301Z,9.70
2023-04-10T06:21:28.522Z,9.90
2023-04-10T06:23:56.863Z,10.00
2023-04-10T06:26:27.334Z,10.10
2023-04-10T06:28:56.598Z,10.20
2023-04-10T06:31:25.862Z,10.30
2023-04-10T06:33:54.113Z,10.50
2023-04-10T06:36:22.437Z,10.60
2023-04-10T06:38:58.819Z,10.70
2023-04-10T06:41:28.519Z,10.90
2023-04-10T06:44:03.427Z,11.00
2023-04-10T06:46:32.001Z,11.10
2023-04-10T06:49:00.197Z,11.20
2023-04-10T06:51:28.483Z,11.20
2023-04-10T06:53:56.670Z,11.30
2023-04-10T06:56:24.908Z,11.30
2023-04-10T06:58:54.615Z,11.30
2023-04-10T07:01:23.078Z,11.40
2023-04-10T07:03:51.372Z,11.50
2023-04-10T07:06:19.673Z,11.60
2023-04-10T07:08:49.380Z,11.70
2023-04-10T07:11:17.594Z,11.70
2023-04-10T07:13:46.030Z,11.60
2023-04-10T07:16:17.030Z,11.60
2023-04-10T07:18:47.299Z,11.80
2023-04-10T07:21:15.799Z,11.90
2023-04-10T07:23:44.002Z,11.90
2023-04-10T07:26:12.498Z,12.00
2023-04-10T07:28:40.692Z,12.10
2023-04-10T07:31:09.009Z,12.20
2023-04-10T07:33:38.715Z,12.40
2023-04-10T07:36:08.186Z,12.50
2023-04-10T07:38:36.537Z,12.70
2023-04-10T07:41:04.900Z,12.80
2023-04-10T07:43:33.141Z,13.00
2023-04-10T07:46:01.486Z,13.10
2023-04-10T07:48:29.901Z,13.30
2023-04-10T07:50:59.550Z,13.60
2023-04-10T07:53:27.776Z,13.70
2023-04-10T07:55:55.994Z,13.90
2023-04-10T07:58:24.190Z,14.20
2023-04-10T08:00:52.889Z,14.30
2023-04-10T08:03:21.396Z,14.30
2023-04-10T08:05:49.644Z,14.40
2023-04-10T08:08:19.232Z,14.60
2023-04-10T08:10:47.501Z,14.60
2023-04-10T08:13:17.061Z,14.60
2023-04-10T08:15:45.350Z,14.60
2023-04-10T08:18:13.520Z,14.70
2023-04-10T08:20:41.768Z,14.60
2023-04-10T08:23:19.869Z,14.60
2023-04-10T08:25:51.243Z,14.60
2023-04-10T08:28:21.293Z,14.80
2023-04-10T08:30:49.641Z,14.90
2023-04-10T08:33:17.864Z,14.90
2023-04-10T08:35:48.978Z,15.00
2023-04-10T08:38:17.246Z,15.00
2023-04-10T08:40:45.551Z,15.20
2023-04-10T08:43:15.485Z,15.20
2023-04-10T08:45:43.739Z,15.30
2023-04-10T08:48:12.792Z,15.40
2023-04-10T08:50:43.893Z,15.50
2023-04-10T08:53:13.894Z,15.60
2023-04-10T08:55:42.962Z,15.90
2023-04-10T08:58:13.661Z,15.80
2023-04-10T09:00:43.334Z,15.90
2023-04-10T09:03:15.057Z,16.10
2023-04-10T09:05:43.555Z,16.20
2023-04-10T09:08:12.228Z,16.30
2023-04-10T09:10:40.634Z,16.50
2023-04-10T09:13:08.799Z,16.60
2023-04-10T09:15:59.596Z,16.50
2023-04-10T09:18:45.701Z,16.50
2023-04-10T09:21:15.802Z,16.80
2023-04-10T09:23:45.300Z,16.70
2023-04-10T09:26:30.273Z,16.80
2023-04-10T09:29:00.719Z,16.70
2023-04-10T09:31:35.232Z,16.60
2023-04-10T09:34:15.390Z,16.70
2023-04-10T09:36:44.648Z,16.70
2023-04-10T09:39:13.399Z,16.80
2023-04-10T09:41:52.612Z,17.00
2023-04-10T09:44:31.141Z,17.00
2023-04-10T09:47:15.680Z,17.00
2023-04-10T09:49:47.342Z,17.00
2023-04-10T09:52:26.498Z,17.20
2023-04-10T09:54:55.288Z,17.40
2023-04-10T09:57:24.871Z,17.50
2023-04-10T09:59:54.978Z,17.50
2023-04-10T10:02:26.224Z,17.60
2023-04-10T10:04:54.882Z,17.90
2023-04-10T10:07:25.071Z,18.00
2023-04-10T10:09:54.386Z,18.20
2023-04-10T10:12:27.229Z,18.40
2023-04-10T10:15:02.051Z,18.50
2023-04-10T10:17:40.001Z,18.50
2023-04-10T10:20:11.206Z,18.80
2023-04-10T10:22:39.827Z,19.30
2023-04-10T10:25:10.113Z,19.50
2023-04-10T10:27:39.406Z,19.70
2023-04-10T10:30:25.740Z,19.80
2023-04-10T10:33:00.479Z,19.70
2023-04-10T10:35:30.075Z,19.80
2023-04-10T10:38:01.286Z,20.10
2023-04-10T10:40:33.115Z,20.30
2023-04-10T10:43:13.113Z,20.40
2023-04-10T10:45:49.554Z,20.00
2023-04-10T10:48:19.336Z,20.20
2023-04-10T10:50:57.329Z,20.30
2023-04-10T10:53:34.014Z,20.30
2023-04-10T10:56:34.469Z,20.30
2023-04-10T10:59:03.231Z,20.50
2023-04-10T11:01:31.581Z,20.40
2023-04-10T11:04:01.374Z,20.50
2023-04-10T11:06:53.079Z,20.50
2023-04-10T11:09:50.509Z,20.50
2023-04-10T11:12:22.570Z,20.50
2023-04-10T11:14:59.726Z,20.50
2023-04-10T11:17:54.373Z,20.50
2023-04-10T11:20:27.271Z,20.50
2023-04-10T11:23:12.922Z,20.50
2023-04-10T11:25:49.086Z,20.70
2023-04-10T11:28:36.417Z,20.60
2023-04-10T11:31:22.470Z,20.70
2023-04-10T11:34:01.802Z,20.80
2023-04-10T11:36:32.799Z,21.00
2023-04-10T11:39:02.760Z,21.00
2023-04-10T11:41:32.230Z,21.20
2023-04-10T11:44:01.788Z,21.00
2023-04-10T11:46:30.672Z,20.70
2023-04-10T11:49:02.244Z,20.80
2023-04-10T11:51:32.483Z,20.60
2023-04-10T11:54:11.250Z,20.70
2023-04-10T11:56:40.978Z,20.60
2023-04-10T11:59:10.972Z,20.80
2023-04-10T12:01:42.803Z,20.80
2023-04-10T12:04:16.249Z,20.90
2023-04-10T12:06:47.203Z,20.70
2023-04-10T12:09:17.309Z,20.50
2023-04-10T12:11:53.166Z,20.40
2023-04-10T12:14:22.189Z,20.60
2023-04-10T12:16:51.392Z,20.80
2023-04-10T12:19:21.288Z,21.10
2023-04-10T12:21:51.315Z,21.20
2023-04-10T12:24:44.413Z,21.30
2023-04-10T12:27:19.141Z,21.40
2023-04-10T12:29:47.981Z,21.40
2023-04-10T12:32:16.505Z,21.30
2023-04-10T12:34:51.201Z,21.10
2023-04-10T12:37:21.174Z,21.00
2023-04-10T12:39:49.881Z,20.50
2023-04-10T12:42:20.701Z,20.00
2023-04-10T12:44:53.077Z,19.90
2023-04-10T12:47:21.549Z,19.70
2023-04-10T12:50:06.718Z,19.50
2023-04-10T12:52:36.899Z,19.30
2023-04-10T12:55:12.891Z,19.20
2023-04-10T12:57:41.544Z,19.00
2023-04-10T13:00:11.258Z,19.10
2023-04-10T13:02:40.346Z,19.20
2023-04-10T13:05:10.376Z,19.10
2023-04-10T13:07:40.987Z,19.10
2023-04-10T13:10:10.628Z,18.90
2023-04-10T13:12:40.068Z,19.00
2023-04-10T13:15:08.796Z,19.00
2023-04-10T13:17:37.066Z,18.90
2023-04-10T13:20:06.486Z,18.60
2023-04-10T13:22:34.726Z,18.40
2023-04-10T13:25:05.279Z,18.40
2023-04-10T13:27:33.468Z,18.50
2023-04-10T13:30:01.790Z,18.50
2023-04-10T13:32:30.058Z,18.50
2023-04-10T13:34:58.254Z,18.30
2023-04-10T13:37:26.631Z,18.10
2023-04-10T13:39:55.010Z,18.10
2023-04-10T13:42:24.630Z,18.00
2023-04-10T13:44:52.816Z,18.00
2023-04-10T13:47:21.188Z,18.00
2023-04-10T13:49:49.333Z,17.90
2023-04-10T13:52:17.534Z,17.90
2023-04-10T13:54:45.729Z,18.00
2023-04-10T13:57:13.938Z,17.90
2023-04-10T13:59:43.464Z,18.20
2023-04-10T14:02:11.875Z,18.60
2023-04-10T14:04:41.140Z,18.80
2023-04-10T14:07:10.163Z,18.80
2023-04-10T14:09:38.456Z,18.90
2023-04-10T14:12:06.676Z,18.90
2023-04-10T14:14:34.985Z,19.00
2023-04-10T14:17:04.650Z,18.90
2023-04-10T14:19:33.147Z,18.50
2023-04-10T14:22:01.317Z,18.30
2023-04-10T14:24:29.473Z,18.10
2023-04-10T14:27:00.681Z,17.80
2023-04-10T14:29:37.158Z,17.70
2023-04-10T14:32:08.934Z,17.60
2023-04-10T14:34:37.172Z,17.50
2023-04-10T14:37:05.420Z,17.70
2023-04-10T14:39:33.908Z,17.90
2023-04-10T14:42:03.252Z,18.00
2023-04-10T14:44:31.854Z,18.10
2023-04-10T14:47:00.053Z,18.20
2023-04-10T14:49:29.625Z,18.30
2023-04-10T14:51:57.774Z,18.40
2023-04-10T14:54:26.040Z,18.70
2023-04-10T14:56:54.241Z,18.70
2023-04-10T14:59:22.442Z,18.80
2023-04-10T15:01:50.857Z,18.70
2023-04-10T15:04:19.097Z,18.40
2023-04-10T15:06:48.635Z,18.30
2023-04-10T15:09:16.879Z,18.10
2023-04-10T15:11:45.096Z,18.00
2023-04-10T15:14:13.322Z,17.70
2023-04-10T15:16:41.919Z,17.60
2023-04-10T15:19:10.265Z,17.50
2023-04-10T15:21:38.414Z,17.50
2023-04-10T15:24:08.270Z,17.40
2023-04-10T15:26:36.477Z,17.20
2023-04-10T15:29:04.625Z,17.00
2023-04-10T15:31:32.858Z,16.90
2023-04-10T15:34:00.991Z,16.80
2023-04-10T15:36:29.853Z,16.80
2023-04-10T15:38:59.721Z,16.80
2023-04-10T15:41:30.280Z,16.70
2023-04-10T15:43:58.687Z,16.50
2023-04-10T15:46:27.326Z,16.60
2023-04-10T15:48:55.583Z,16.50
2023-04-10T15:51:23.727Z,16.40
2023-04-10T15:53:52.067Z,16.40
2023-04-10T15:56:20.665Z,16.40
2023-04-10T15:58:50.343Z,16.40
2023-04-10T16:01:18.624Z,16.40
2023-04-10T16:03:46.938Z,16.20
2023-04-10T16:06:15.325Z,16.10
2023-04-10T16:08:43.520Z,16.10
2023-04-10T16:11:11.694Z,16.10
2023-04-10T16:13:42.259Z,16.20
2023-04-10T16:16:16.837Z,16.10
2023-04-10T16:18:46.436Z,16.10
2023-04-10T16:21:15.240Z,15.90
2023-04-10T16:23:43.464Z,16.00
2023-04-10T16:26:11.740Z,16.00
2023-04-10T16:28:39.867Z,16.00
2023-04-10T16:31:08.252Z,16.20
2023-04-10T16:33:37.879Z,16.30
2023-04-10T16:36:06.842Z,16.10
2023-04-10T16:38:35.484Z,15.90
2023-04-10T16:41:04.112Z,15.80
2023-04-10T16:43:32.345Z,15.70
2023-04-10T16:46:01.114Z,15.50
2023-04-10T16:48:29.297Z,15.50
2023-04-10T16:51:04.744Z,15.30
2023-04-10T16:53:33.394Z,15.30
2023-04-10T16:56:04.502Z,15.20
2023-04-10T16:58:36.027Z,15.20
2023-04-10T17:01:14.536Z,15.20
2023-04-10T17:03:42.866Z,15.10
2023-04-10T17:06:12.494Z,15.00
2023-04-10T17:08:40.735Z,14.90
2023-04-10T17:11:09.407Z,14.80
2023-04-10T17:13:37.573Z,14.60
2023-04-10T17:16:06.359Z,14.40
2023-04-10T17:18:34.631Z,14.20
2023-04-10T17:21:02.801Z,14.00
2023-04-10T17:23:32.666Z,13.80
2023-04-10T17:26:01.060Z,13.60
2023-04-10T17:28:29.229Z,13.50
2023-04-10T17:30:57.412Z,13.30
2023-04-10T17:33:25.682Z,13.10
2023-04-10T17:35:55.376Z,13.00
2023-04-10T17:38:23.687Z,12.80
2023-04-10T17:40:53.252Z,12.60
2023-04-10T17:43:21.552Z,12.50
2023-04-10T17:45:49.737Z,12.50
2023-04-10T17:48:18.427Z,12.60
2023-04-10T17:50:48.113Z,12.50
2023-04-10T17:53:16.424Z,12.60
2023-04-10T17:55:45.438Z,12.50
2023-04-10T17:58:15.042Z,12.40
2023-04-10T18:00:43.987Z,12.30
2023-04-10T18:03:12.270Z,12.20
2023-04-10T18:05:40.621Z,12.10
2023-04-10T18:08:08.916Z,12.20
2023-04-10T18:10:37.160Z,12.10
2023-04-10T18:13:05.918Z,12.10
2023-04-10T18:15:35.506Z,12.10
2023-04-10T18:18:03.777Z,12.10
2023-04-10T18:20:32.016Z,12.10
2023-04-10T18:23:00.506Z,12.20
2023-04-10T18:25:29.314Z,12.20
2023-04-10T18:30:32.646Z,12.20
2023-04-10T18:33:05.121Z,12.20
2023-04-10T18:35:33.869Z,12.30
2023-04-10T18:38:03.022Z,12.30
2023-04-10T18:40:31.265Z,12.30
2023-04-10T18:42:59.737Z,12.30
2023-04-10T18:45:27.934Z,12.30
2023-04-10T18:47:56.111Z,12.20
2023-04-10T18:50:25.742Z,12.20
2023-04-10T18:52:54.061Z,12.20
2023-04-10T18:55:22.338Z,12.20
2023-04-10T18:57:50.549Z,12.10
2023-04-10T19:00:19.054Z,12.10
2023-04-10T19:02:47.392Z,12.10
2023-04-10T19:05:16.678Z,12.00
2023-04-10T19:07:56.597Z,12.00
2023-04-10T19:10:29.322Z,11.90
2023-04-10T19:12:57.528Z,11.80
2023-04-10T19:15:26.084Z,11.90
2023-04-10T19:17:54.750Z,11.90
2023-04-10T19:20:50.759Z,11.80
2023-04-10T19:23:12.871Z,11.80
2023-04-10T19:25:41.114Z,11.70
2023-04-10T19:28:09.283Z,11.80
2023-04-10T19:30:37.467Z,11.60
2023-04-10T19:33:05.937Z,11.60
2023-04-10T19:35:34.213Z,11.60
2023-04-10T19:38:02.552Z,11.60
2023-04-10T19:40:32.560Z,11.60
2023-04-10T19:43:01.819Z,11.50
2023-04-10T19:45:32.323Z,11.50
2023-04-10T19:48:01.088Z,11.50
2023-04-10T19:50:30.744Z,11.40
2023-04-10T19:52:59.547Z,11.40
2023-04-10T19:55:28.082Z,11.30
2023-04-10T19:57:57.767Z,11.30
2023-04-10T20:00:26.109Z,11.30
2023-04-10T20:02:54.492Z,11.30
2023-04-10T20:05:22.947Z,11.30
2023-04-10T20:07:51.444Z,11.30
2023-04-10T20:10:19.600Z,11.30
2023-04-10T20:12:47.790Z,11.30
2023-04-10T20:15:17.545Z,11.30
2023-04-10T20:17:45.752Z,11.20
2023-04-10T20:20:13.938Z,11.30
2023-04-10T20:22:43.037Z,11.20
2023-04-10T20:25:11.419Z,11.20
2023-04-10T20:27:39.621Z,11.20
2023-04-10T20:30:08.969Z,11.20
2023-04-10T20:32:38.798Z,11.20
2023-04-10T20:35:08.218Z,11.10
2023-04-10T20:37:36.414Z,11.00
2023-04-10T20:40:04.983Z,11.00
2023-04-10T20:42:33.201Z,11.00
2023-04-10T20:45:01.378Z,10.90
2023-04-10T20:47:30.058Z,10.80
2023-04-10T20:49:59.609Z,10.70
2023-04-10T20:52:27.891Z,10.70
2023-04-10T20:54:56.342Z,10.70
2023-04-10T20:57:24.762Z,10.70
2023-04-10T20:59:53.005Z,10.60
2023-04-10T21:02:21.375Z,10.50
2023-04-10T21:04:51.508Z,10.50
2023-04-10T21:07:21.094Z,10.40
2023-04-10T21:09:49.285Z,10.40
2023-04-10T21:12:17.446Z,10.40
2023-04-10T21:14:45.820Z,10.40
2023-04-10T21:17:13.996Z,10.50
2023-04-10T21:19:42.220Z,10.50
2023-04-10T21:22:11.236Z,10.50
2023-04-10T21:24:40.813Z,10.60
2023-04-10T21:27:09.112Z,10.50
2023-04-10T21:29:37.309Z,10.50
2023-04-10T21:32:05.546Z,10.40
2023-04-10T21:34:33.761Z,10.50
2023-04-10T21:37:01.930Z,10.50
2023-04-10T21:39:30.496Z,10.40
2023-04-10T21:42:00.049Z,10.50
2023-04-10T21:44:28.244Z,10.50
2023-04-10T21:46:56.392Z,10.50
2023-04-10T21:49:24.593Z,10.40
2023-04-10T21:51:52.747Z,10.40
2023-04-10T21:54:21.009Z,10.40
2023-04-10T21:56:49.211Z,10.40
2023-04-10T21:59:18.765Z,10.30
2023-04-10T22:01:47.069Z,10.40
2023-04-10T22:04:15.669Z,10.40
2023-04-10T22:06:43.925Z,10.40
2023-04-10T22:09:12.094Z,10.40
2023-04-10T22:11:40.475Z,10.50
2023-04-10T22:14:17.129Z,10.40
2023-04-10T22:16:48.392Z,10.40
2023-04-10T22:19:16.585Z,10.50
2023-04-10T22:21:45.006Z,10.50
2023-04-10T22:24:13.378Z,10.50
2023-04-10T22:26:45.825Z,10.50
2023-04-10T22:29:14.549Z,10.40
2023-04-10T22:31:42.998Z,10.40
2023-04-10T22:34:12.812Z,10.50
2023-04-10T22:36:41.520Z,10.40
2023-04-10T22:39:09.911Z,10.40
2023-04-10T22:41:38.216Z,10.40
2023-04-10T22:44:07.380Z,10.50
2023-04-10T22:46:35.612Z,10.50
2023-04-10T22:49:03.947Z,10.40
2023-04-10T22:51:33.526Z,10.50
2023-04-10T22:54:02.010Z,10.40
2023-04-10T22:56:30.210Z,10.40
2023-04-10T22:58:58.409Z,10.40
2023-04-10T23:01:26.586Z,10.40
2023-04-10T23:03:54.826Z,10.40
2023-04-10T23:06:24.016Z,10.40
2023-04-10T23:08:53.760Z,10.30
2023-04-10T23:11:22.373Z,10.30
2023-04-10T23:13:50.526Z,10.30
2023-04-10T23:16:18.792Z,10.30
2023-04-10T23:18:46.985Z,10.20
2023-04-10T23:21:15.433Z,10.20
2023-04-10T23:23:43.589Z,10.20
2023-04-10T23:26:13.290Z,10.10
2023-04-10T23:28:41.855Z,10.00
2023-04-10T23:31:10.070Z,9.90
2023-04-10T23:33:38.362Z,9.80
2023-04-10T23:36:07.362Z,9.80
2023-04-10T23:38:35.534Z,9.70
2023-04-10T23:41:03.923Z,9.60
2023-04-10T23:43:33.560Z,9.50
2023-04-10T23:46:01.802Z,9.50
2023-04-10T23:48:30.000Z,9.50
2023-04-10T23:51:08.593Z,9.40
2023-04-10T23:53:37.057Z,9.40
2023-04-10T23:56:07.747Z,9.30
2023-04-10T23:58:37.325Z,9.30
